Time;durP1;ratioP1;P1;durP2;ratioP2;P2;SDS_P1;SDS_P2;PMS_P1;PMS_P2;Temp;Humidity;BMP_temperature;BMP_pressure;BME280_temperature;BME280_humidity;BME280_pressure;Samples;Min_cycle;Max_cycle;Signal;HPM_P1;HPM_P2
2022/02/19 00:01:44;;;;;;;9.40;1.60;;;;;;;5.03;77.57;95579.38;5015319;28;20042;-78
2022/02/19 00:04:10;;;;;;;9.10;1.33;;;;;;;5.00;77.95;95577.06;5024254;28;20040;-78
2022/02/19 00:06:37;;;;;;;11.63;1.70;;;;;;;5.03;78.09;95574.16;5040090;28;20042;-77
2022/02/19 00:09:04;;;;;;;10.50;1.63;;;;;;;4.93;78.65;95569.81;5023198;28;20714;-78
2022/02/19 00:11:30;;;;;;;11.10;1.80;;;;;;;4.90;78.77;95590.13;5021531;28;20029;-78
2022/02/19 00:13:56;;;;;;;8.63;1.70;;;;;;;4.96;77.87;95598.19;5017440;28;20037;-77
2022/02/19 00:16:22;;;;;;;9.33;1.53;;;;;;;4.89;77.91;95599.69;5036630;28;20033;-77
2022/02/19 00:18:48;;;;;;;8.10;1.27;;;;;;;4.93;76.74;95597.66;5021299;28;20037;-78
2022/02/19 00:21:13;;;;;;;10.40;1.47;;;;;;;4.84;78.55;95590.69;5032988;28;20631;-78
2022/02/19 00:23:40;;;;;;;11.17;1.47;;;;;;;4.76;79.26;95596.56;5033147;28;20034;-78
2022/02/19 00:26:06;;;;;;;5.57;1.17;;;;;;;4.61;84.95;95605.78;5016353;28;20037;-77
2022/02/19 00:28:32;;;;;;;6.57;1.10;;;;;;;4.32;91.78;95608.38;5016585;28;20022;-78
2022/02/19 00:30:58;;;;;;;5.60;1.00;;;;;;;4.28;97.37;95615.63;5014363;28;20033;-77
2022/02/19 00:33:25;;;;;;;5.30;1.30;;;;;;;4.12;100.00;95612.72;5019810;28;20033;-77
2022/02/19 00:35:51;;;;;;;6.23;1.57;;;;;;;4.03;100.00;95622.19;5038088;28;20037;-78
2022/02/19 00:38:18;;;;;;;5.20;0.80;;;;;;;3.93;100.00;95623.94;5014210;28;20026;-77
2022/02/19 00:40:45;;;;;;;5.57;0.87;;;;;;;3.86;100.00;95626.25;5020532;28;20034;-78
2022/02/19 00:43:10;;;;;;;3.40;0.70;;;;;;;3.92;100.00;95645.69;5017041;28;20042;-78
2022/02/19 00:45:36;;;;;;;4.27;1.00;;;;;;;3.85;100.00;95642.78;5015442;28;20034;-77
2022/02/19 00:48:02;;;;;;;3.93;0.70;;;;;;;3.92;100.00;95653.50;5014783;28;20046;-78
2022/02/19 00:50:29;;;;;;;4.63;1.00;;;;;;;3.93;100.00;95658.56;5014036;28;20055;-78
2022/02/19 00:52:55;;;;;;;3.67;1.37;;;;;;;4.00;100.00;95664.88;5024324;28;20033;-76
2022/02/19 00:55:22;;;;;;;7.53;1.43;;;;;;;3.96;100.00;95668.72;5066236;28;20037;-78
2022/02/19 00:57:48;;;;;;;3.63;0.80;;;;;;;3.97;100.00;95674.75;5007281;28;20034;-77
2022/02/19 01:00:14;;;;;;;6.70;1.23;;;;;;;3.95;100.00;95671.44;5053909;28;20383;-76
2022/02/19 01:02:58;;;;;;;5.97;1.17;;;;;;;3.99;100.00;95675.41;5035073;28;20549;-78
2022/02/19 01:05:27;;;;;;;5.53;2.03;;;;;;;4.00;100.00;95679.69;5016531;28;20079;-78
2022/02/19 01:07:54;;;;;;;4.13;0.70;;;;;;;3.95;100.00;95682.66;5072868;28;20033;-78
2022/02/19 01:10:20;;;;;;;4.17;0.60;;;;;;;3.97;100.00;95690.34;5036594;28;20089;-78
2022/02/19 01:12:46;;;;;;;9.77;1.20;;;;;;;3.97;100.00;95698.97;5050972;28;21078;-77
2022/02/19 01:15:12;;;;;;;4.17;0.73;;;;;;;4.02;100.00;95680.34;5017154;28;20117;-78
2022/02/19 01:17:41;;;;;;;3.37;0.80;;;;;;;4.03;100.00;95689.00;5033549;28;20053;-77
2022/02/19 01:20:11;;;;;;;6.00;1.53;;;;;;;4.07;100.00;95690.38;5034628;28;20543;-79
2022/02/19 01:22:42;;;;;;;4.47;1.00;;;;;;;4.08;100.00;95699.81;5066670;28;20115;-77
2022/02/19 01:25:10;;;;;;;4.50;1.10;;;;;;;4.09;100.00;95699.72;5033188;28;20041;-77
2022/02/19 01:27:39;;;;;;;5.73;1.53;;;;;;;4.11;100.00;95707.38;5067244;28;20127;-76
2022/02/19 01:30:06;;;;;;;4.63;1.00;;;;;;;4.16;100.00;95710.41;5032889;28;20064;-77
2022/02/19 01:32:32;;;;;;;7.20;1.37;;;;;;;4.14;100.00;95713.13;5066669;28;20029;-77
2022/02/19 01:34:58;;;;;;;7.73;1.10;;;;;;;4.15;100.00;95712.16;5018629;28;20129;-78
2022/02/19 01:37:26;;;;;;;4.97;0.97;;;;;;;4.16;100.00;95708.63;5029929;28;20410;-78
2022/02/19 01:39:52;;;;;;;6.97;1.07;;;;;;;4.13;100.00;95710.69;5046724;28;20045;-77
2022/02/19 01:42:17;;;;;;;3.93;1.50;;;;;;;4.10;100.00;95716.16;5049494;28;20039;-78
2022/02/19 01:44:47;;;;;;;6.60;1.37;;;;;;;4.08;100.00;95710.22;5045956;28;20120;-78
2022/02/19 01:47:15;;;;;;;7.27;0.97;;;;;;;4.07;100.00;95708.59;5032902;28;20044;-78
2022/02/19 01:49:41;;;;;;;6.70;1.07;;;;;;;4.09;100.00;95717.06;5016750;28;20538;-78
2022/02/19 01:52:11;;;;;;;6.03;0.90;;;;;;;4.10;100.00;95718.75;5062656;28;20021;-78
2022/02/19 01:54:39;;;;;;;4.90;0.93;;;;;;;4.00;100.00;95722.13;5016371;28;20063;-78
2022/02/19 01:57:09;;;;;;;4.30;1.13;;;;;;;4.04;100.00;95721.88;5040163;28;20550;-78
2022/02/19 01:59:52;;;;;;;5.03;1.23;;;;;;;3.99;100.00;95715.28;5035905;28;20037;-77
2022/02/19 02:02:36;;;;;;;8.77;1.20;;;;;;;4.02;100.00;95716.78;5050543;28;20110;-77
2022/02/19 02:05:22;;;;;;;6.53;1.30;;;;;;;4.04;100.00;95714.88;5014678;28;20044;-77
2022/02/19 02:07:48;;;;;;;8.43;1.27;;;;;;;3.96;100.00;95710.34;5012167;28;20042;-76
2022/02/19 02:10:14;;;;;;;7.90;1.10;;;;;;;3.91;100.00;95712.50;5012510;28;20080;-78
2022/02/19 02:12:40;;;;;;;7.27;1.40;;;;;;;3.96;100.00;95705.13;5020543;28;20040;-77
2022/02/19 02:15:28;;;;;;;6.60;1.17;;;;;;;3.94;100.00;95709.63;5052124;28;20055;-77
2022/02/19 02:18:13;;;;;;;6.87;1.40;;;;;;;3.86;100.00;95719.88;5053491;28;20119;-78
2022/02/19 02:20:39;;;;;;;3.60;1.00;;;;;;;3.86;100.00;95719.88;5025894;28;20091;-78
2022/02/19 02:23:07;;;;;;;9.37;1.30;;;;;;;3.88;100.00;95717.97;5012639;28;20033;-78
2022/02/19 02:25:34;;;;;;;4.37;1.10;;;;;;;3.86;100.00;95719.88;5067881;28;20025;-77
2022/02/19 02:28:04;;;;;;;8.83;0.90;;;;;;;3.82;100.00;95718.47;5035786;28;20583;-77
2022/02/19 02:30:31;;;;;;;9.87;1.03;;;;;;;3.86;98.27;95732.06;5052152;28;20036;-77
2022/02/19 02:33:12;;;;;;;7.23;1.43;;;;;;;3.93;90.46;95730.59;5052510;28;20037;-77
2022/02/19 02:35:39;;;;;;;3.72;0.93;;;;;;;3.98;86.50;95729.22;5032060;28;20415;-77
2022/02/19 02:38:05;;;;;;;7.07;1.10;;;;;;;3.98;87.29;95738.81;5015513;28;20045;-78
2022/02/19 02:40:32;;;;;;;5.77;1.33;;;;;;;4.00;84.76;95736.91;5027971;28;20056;-77
2022/02/19 02:42:59;;;;;;;4.13;1.10;;;;;;;4.01;81.92;95749.78;5036083;28;20535;-77
2022/02/19 02:45:25;;;;;;;11.60;1.77;;;;;;;4.04;80.89;95740.91;5051961;28;20037;-78
2022/02/19 02:47:52;;;;;;;8.37;1.10;;;;;;;4.00;79.69;95740.34;5036147;28;20031;-77
2022/02/19 02:50:18;;;;;;;9.07;1.57;;;;;;;4.08;74.21;95754.47;5057874;28;20021;-77
2022/02/19 02:52:43;;;;;;;7.47;1.20;;;;;;;4.05;72.45;95755.53;5029542;28;20128;-77
2022/02/19 02:55:12;;;;;;;12.37;1.30;;;;;;;4.12;70.06;95756.66;5029407;28;20038;-77
2022/02/19 02:57:39;;;;;;;6.30;0.80;;;;;;;4.08;69.37;95750.09;5012556;28;20041;-77
2022/02/19 03:00:07;;;;;;;5.90;1.73;;;;;;;4.13;67.59;95757.50;5012861;28;20488;-77
2022/02/19 03:02:37;;;;;;;6.33;0.97;;;;;;;4.11;67.15;95749.81;5029230;28;20033;-78
2022/02/19 03:05:07;;;;;;;6.87;0.90;;;;;;;4.12;66.23;95758.44;5038702;28;20099;-77
2022/02/19 03:07:34;;;;;;;7.23;1.13;;;;;;;4.09;66.57;95759.56;5024337;28;20044;-78
2022/02/19 03:10:01;;;;;;;6.90;1.63;;;;;;;4.09;65.65;95766.50;5032777;28;20053;-78
2022/02/19 03:12:28;;;;;;;7.90;1.40;;;;;;;4.13;65.46;95763.53;5032080;28;20032;-76
2022/02/19 03:14:54;;;;;;;10.87;1.60;;;;;;;4.07;65.86;95766.66;5030319;28;20089;-78
2022/02/19 03:17:20;;;;;;;7.57;1.50;;;;;;;4.00;67.31;95768.13;5017119;28;20487;-78
2022/02/19 03:19:47;;;;;;;11.23;1.90;;;;;;;4.00;67.53;95779.38;5019790;28;20040;-77
2022/02/19 03:22:13;;;;;;;9.43;1.70;;;;;;;3.96;67.32;95788.38;5063143;28;20063;-77
2022/02/19 03:24:40;;;;;;;8.30;1.77;;;;;;;3.92;68.56;95788.75;5012827;28;20029;-77
2022/02/19 03:27:08;;;;;;;8.23;1.40;;;;;;;3.91;67.91;95782.72;4998166;28;20061;-77
2022/02/19 03:29:35;;;;;;;8.20;1.73;;;;;;;3.91;68.17;95790.53;5029965;28;20030;-76
2022/02/19 03:32:05;;;;;;;7.97;1.73;;;;;;;3.85;68.51;95803.22;5013812;28;20033;-78
2022/02/19 03:34:31;;;;;;;6.60;1.53;;;;;;;3.75;70.13;95805.78;5046118;28;20037;-77
2022/02/19 03:36:57;;;;;;;9.37;1.57;;;;;;;3.74;70.22;95814.53;5029556;28;20407;-77
2022/02/19 03:39:24;;;;;;;5.70;1.30;;;;;;;3.80;69.78;95803.63;5013159;28;20084;-77
2022/02/19 03:41:51;;;;;;;5.27;1.10;;;;;;;3.78;69.96;95821.13;5013652;28;20220;-77
2022/02/19 03:44:18;;;;;;;11.77;2.40;;;;;;;3.72;69.95;95827.69;5031602;28;20387;-78
2022/02/19 03:46:49;;;;;;;7.97;1.47;;;;;;;3.68;70.37;95831.47;5053027;28;20242;-77
2022/02/19 03:49:24;;;;;;;14.97;1.70;;;;;;;3.71;70.70;95838.19;5013795;28;20030;-77
2022/02/19 03:51:50;;;;;;;4.83;1.00;;;;;;;3.71;69.85;95839.00;5049466;28;20029;-77
2022/02/19 03:54:16;;;;;;;8.03;1.33;;;;;;;3.69;70.37;95850.50;5066351;28;20034;-77
2022/02/19 03:56:45;;;;;;;9.77;1.30;;;;;;;3.61;71.54;95858.94;5017069;28;20037;-76
2022/02/19 03:59:14;;;;;;;10.80;1.73;;;;;;;3.62;70.79;95852.81;5066051;28;20045;-78
2022/02/19 04:01:41;;;;;;;7.60;1.40;;;;;;;3.61;70.71;95876.31;5001485;28;20022;-77
2022/02/19 04:04:12;;;;;;;15.57;1.67;;;;;;;3.68;69.03;95877.47;5030400;28;20038;-78
2022/02/19 04:06:38;;;;;;;7.70;1.40;;;;;;;3.62;69.75;95883.16;5029501;28;20037;-77
2022/02/19 04:09:04;;;;;;;5.97;1.40;;;;;;;3.55;69.82;95888.03;5029466;28;20041;-77
2022/02/19 04:11:30;;;;;;;10.97;1.53;;;;;;;3.59;68.20;95889.44;5014098;28;20476;-77
2022/02/19 04:13:57;;;;;;;10.80;1.87;;;;;;;3.58;67.32;95889.56;5013451;28;20030;-78
2022/02/19 04:16:28;;;;;;;11.83;1.80;;;;;;;3.62;66.63;95893.56;5013208;28;20064;-78
2022/02/19 04:18:56;;;;;;;5.87;1.03;;;;;;;3.56;68.16;95894.06;5047179;28;20026;-77
2022/02/19 04:21:23;;;;;;;11.13;1.33;;;;;;;3.48;68.46;95907.66;5013069;28;20038;-77
2022/02/19 04:23:49;;;;;;;9.27;1.17;;;;;;;3.37;70.21;95900.75;5029955;28;20133;-77
2022/02/19 04:26:16;;;;;;;6.70;1.30;;;;;;;3.37;68.64;95905.13;5045953;28;20031;-77
2022/02/19 04:28:46;;;;;;;8.93;1.57;;;;;;;3.34;69.06;95913.97;5012881;28;20456;-78
2022/02/19 04:31:19;;;;;;;6.70;1.30;;;;;;;3.25;69.21;95914.69;5013441;28;20026;-77
2022/02/19 04:33:46;;;;;;;11.20;1.87;;;;;;;3.26;68.25;95905.97;5028023;28;20044;-78
2022/02/19 04:36:12;;;;;;;8.53;1.30;;;;;;;3.34;67.41;95916.56;5017203;28;20449;-77
2022/02/19 04:38:38;;;;;;;9.07;1.37;;;;;;;3.32;67.20;95926.28;5032921;28;20685;-77
2022/02/19 04:41:05;;;;;;;5.70;1.20;;;;;;;3.15;68.14;95922.41;5016052;28;20029;-75
2022/02/19 04:43:31;;;;;;;5.60;1.20;;;;;;;3.11;67.99;95935.75;5016907;28;20044;-77
2022/02/19 04:45:57;;;;;;;8.10;1.57;;;;;;;2.99;69.65;95940.16;5066113;28;20121;-77
2022/02/19 04:48:23;;;;;;;5.57;1.30;;;;;;;3.03;68.90;95938.97;5024679;28;20481;-77
2022/02/19 04:50:52;;;;;;;7.93;1.37;;;;;;;3.00;69.10;95945.22;5018324;28;20044;-77
2022/02/19 04:53:19;;;;;;;9.37;1.67;;;;;;;2.99;69.54;95951.38;5016709;28;20599;-77
2022/02/19 04:55:45;;;;;;;7.07;1.27;;;;;;;2.91;70.27;95945.94;5037453;28;20052;-77
2022/02/19 04:58:20;;;;;;;9.40;2.20;;;;;;;2.89;69.53;95950.44;5052110;28;20033;-77
2022/02/19 05:00:46;;;;;;;11.30;2.30;;;;;;;2.81;70.02;95955.38;5050029;28;20463;-77
2022/02/19 05:03:18;;;;;;;8.13;1.13;;;;;;;2.85;69.64;95954.22;5033314;28;20128;-77
2022/02/19 05:05:52;;;;;;;6.87;2.03;;;;;;;2.77;70.41;95956.56;5017680;28;20468;-77
2022/02/19 05:08:19;;;;;;;10.20;3.03;;;;;;;2.78;70.40;95968.59;5016719;28;20037;-77
2022/02/19 05:10:46;;;;;;;7.67;1.03;;;;;;;2.72;70.54;95974.28;5029685;28;20447;-76
2022/02/19 05:13:17;;;;;;;9.93;1.57;;;;;;;2.73;70.66;95981.13;5037432;28;20487;-77
2022/02/19 05:15:43;;;;;;;7.23;1.33;;;;;;;2.75;69.75;95976.63;5053328;28;20506;-77
2022/02/19 05:18:29;;;;;;;11.20;1.40;;;;;;;2.70;69.73;95984.78;5053394;28;20566;-77
2022/02/19 05:20:57;;;;;;;3.30;0.93;;;;;;;2.60;70.78;95983.81;5036419;28;20534;-77
2022/02/19 05:23:24;;;;;;;6.77;1.67;;;;;;;2.56;70.90;95991.03;5036483;28;20512;-77
2022/02/19 05:25:51;;;;;;;10.80;1.40;;;;;;;2.60;71.02;95997.63;5035687;28;20458;-77
2022/02/19 05:28:17;;;;;;;4.50;1.23;;;;;;;2.61;69.59;96003.66;5053221;28;20490;-78
2022/02/19 05:30:44;;;;;;;8.27;1.27;;;;;;;2.59;69.65;95998.59;5036404;28;20526;-77
2022/02/19 05:33:39;;;;;;;9.17;1.27;;;;;;;2.63;69.29;96014.75;5053242;28;21026;-77
2022/02/19 05:36:05;;;;;;;4.70;1.10;;;;;;;2.61;69.77;96011.44;5035911;28;20502;-77
2022/02/19 05:38:34;;;;;;;7.97;2.37;;;;;;;2.59;70.08;96014.16;5025185;28;20468;-77
2022/02/19 05:41:01;;;;;;;9.87;1.57;;;;;;;2.59;70.43;96014.16;5013432;28;20445;-77
2022/02/19 05:43:27;;;;;;;11.37;2.10;;;;;;;2.43;71.15;96033.59;5012884;28;20451;-78
2022/02/19 05:45:52;;;;;;;11.70;1.47;;;;;;;2.42;71.13;96027.56;5013752;28;20457;-78
2022/02/19 05:48:20;;;;;;;6.93;2.27;;;;;;;2.44;71.00;96033.47;5045875;28;20041;-77
2022/02/19 05:51:12;;;;;;;7.53;1.40;;;;;;;2.33;72.68;96049.00;5013128;28;20469;-76
2022/02/19 05:53:43;;;;;;;6.00;1.53;;;;;;;2.32;73.13;96043.00;5012342;28;20464;-78
2022/02/19 05:56:09;;;;;;;8.27;1.50;;;;;;;2.34;73.14;96042.88;5012280;28;20559;-77
2022/02/19 05:58:35;;;;;;;6.30;1.00;;;;;;;2.32;73.99;96042.19;5013302;28;20053;-77
2022/02/19 06:01:08;;;;;;;10.75;1.38;;;;;;;2.22;74.51;96046.38;5024632;28;20483;-76
2022/02/19 06:03:34;;;;;;;9.03;1.37;;;;;;;2.17;74.79;96049.31;5017692;28;20422;-77
2022/02/19 06:06:00;;;;;;;7.90;1.43;;;;;;;2.17;75.76;96044.13;5065575;28;20519;-76
2022/02/19 06:08:27;;;;;;;8.17;1.37;;;;;;;2.12;75.24;96052.25;5017308;28;20372;-78
2022/02/19 06:10:53;;;;;;;7.93;1.53;;;;;;;2.14;75.05;96059.91;5035735;28;20466;-77
2022/02/19 06:13:21;;;;;;;7.97;1.50;;;;;;;2.07;76.52;96067.31;5036189;28;20437;-78
2022/02/19 06:15:48;;;;;;;11.40;2.83;;;;;;;2.14;76.07;96072.88;5035541;28;21075;-77
2022/02/19 06:18:27;;;;;;;14.57;2.00;;;;;;;2.22;75.61;96077.53;5035874;28;20463;-77
2022/02/19 06:20:53;;;;;;;8.17;1.37;;;;;;;2.11;76.69;96086.06;5046449;28;20497;-78
2022/02/19 06:23:45;;;;;;;10.80;2.43;;;;;;;2.06;77.59;96094.19;5030966;28;20407;-77
2022/02/19 06:26:12;;;;;;;9.90;2.00;;;;;;;2.07;78.04;96095.84;5014826;28;20448;-77
2022/02/19 06:28:56;;;;;;;12.87;1.70;;;;;;;2.11;78.21;96099.03;5017004;28;20450;-77
2022/02/19 06:31:23;;;;;;;14.03;2.63;;;;;;;2.07;79.06;96107.97;5014386;28;20848;-77
2022/02/19 06:33:49;;;;;;;9.53;1.57;;;;;;;2.05;79.71;96102.91;5014003;28;20436;-77
2022/02/19 06:36:16;;;;;;;7.93;1.20;;;;;;;2.01;81.18;96111.84;5038952;28;20037;-79
2022/02/19 06:38:42;;;;;;;10.97;1.80;;;;;;;2.04;80.92;96116.81;5034341;28;20460;-78
2022/02/19 06:41:10;;;;;;;16.17;5.73;;;;;;;1.97;81.91;96128.56;5050307;28;20036;-76
2022/02/19 06:43:59;;;;;;;13.33;1.90;;;;;;;2.04;81.30;96132.38;5050838;28;20460;-76
2022/02/19 06:46:28;;;;;;;7.00;1.67;;;;;;;2.02;81.51;96129.06;5049847;28;20455;-77
2022/02/19 06:48:55;;;;;;;14.60;1.63;;;;;;;2.07;80.83;96126.97;5049766;28;20504;-77
2022/02/19 06:51:28;;;;;;;13.23;2.07;;;;;;;2.12;81.11;96139.63;5033479;28;20455;-77
2022/02/19 06:53:56;;;;;;;8.57;1.77;;;;;;;2.24;79.55;96148.28;5048747;28;20454;-77
2022/02/19 06:56:24;;;;;;;9.00;2.10;;;;;;;2.26;79.55;96151.59;5035712;28;20468;-77
2022/02/19 06:58:51;;;;;;;9.20;2.13;;;;;;;2.22;79.56;96158.78;5013521;28;20449;-77
2022/02/19 07:01:19;;;;;;;6.47;1.10;;;;;;;2.43;78.97;96159.00;5029541;28;20533;-76
2022/02/19 07:03:44;;;;;;;13.03;1.67;;;;;;;2.40;79.05;96166.16;5029525;28;20506;-75
2022/02/19 07:06:38;;;;;;;;;;;;;;;2.34;80.14;96170.84;5030577;28;20471;-77
2022/02/19 07:09:04;;;;;;;11.57;1.40;;;;;;;2.25;80.92;96176.72;5062676;28;20374;-77
2022/02/19 07:11:30;;;;;;;9.73;1.60;;;;;;;2.28;81.19;96175.66;5012593;28;20088;-77
2022/02/19 07:13:56;;;;;;;12.70;3.22;;;;;;;2.32;80.78;96187.50;4987506;28;1219852;-77
2022/02/19 07:16:23;;;;;;;13.33;2.67;;;;;;;2.31;80.37;96191.84;5014604;28;20422;-76
2022/02/19 07:18:56;;;;;;;9.67;1.73;;;;;;;2.34;79.27;96195.97;5031157;28;20447;-77
2022/02/19 07:21:22;;;;;;;11.10;2.23;;;;;;;2.48;78.72;96194.97;5031013;28;20479;-77
2022/02/19 07:23:48;;;;;;;13.23;2.43;;;;;;;2.61;78.74;96198.34;5019842;28;20471;-77
2022/02/19 07:26:18;;;;;;;7.20;1.73;;;;;;;2.60;78.37;96199.31;5050265;28;20033;-77
2022/02/19 07:28:47;;;;;;;8.00;1.40;;;;;;;2.70;77.71;96207.25;5048320;28;20444;-76
2022/02/19 07:31:13;;;;;;;14.57;2.30;;;;;;;2.97;76.21;96205.22;5064416;28;20458;-78
2022/02/19 07:33:39;;;;;;;10.07;2.10;;;;;;;2.98;76.39;96214.66;5063320;28;20710;-77
2022/02/19 07:36:09;;;;;;;12.83;3.13;;;;;;;3.16;74.85;96209.91;5030060;28;20472;-78
2022/02/19 07:38:36;;;;;;;8.83;1.83;;;;;;;3.19;75.47;96219.25;5014876;28;20470;-77
2022/02/19 07:41:02;;;;;;;8.63;1.30;;;;;;;3.19;75.05;96225.25;5013680;28;21084;-77
2022/02/19 07:43:48;;;;;;;9.20;1.90;;;;;;;3.75;73.21;96240.13;5031878;28;20051;-77
2022/02/19 07:46:28;;;;;;;8.23;2.00;;;;;;;3.73;72.50;96240.25;5015814;28;20459;-76
2022/02/19 07:58:19;;;;;;;13.80;3.23;;;;;;;3.53;73.93;96265.16;5030985;28;20491;-77
2022/02/19 08:01:07;;;;;;;13.27;1.83;;;;;;;3.90;72.37;96270.16;5015978;28;20021;-77
2022/02/19 08:03:39;;;;;;;9.90;2.30;;;;;;;3.64;74.58;96261.75;5015687;28;20025;-78
2022/02/19 08:06:06;;;;;;;10.17;2.03;;;;;;;3.58;73.26;96277.81;5065445;28;20030;-79
2022/02/19 08:08:34;;;;;;;10.97;1.53;;;;;;;3.61;72.58;96277.56;5014302;28;20033;-78
2022/02/19 08:11:05;;;;;;;8.70;1.30;;;;;;;3.82;74.10;96282.91;5028898;28;20091;-76
2022/02/19 08:13:31;;;;;;;8.47;1.30;;;;;;;3.88;73.45;96292.88;5049607;28;20036;-77
2022/02/19 08:15:57;;;;;;;8.47;1.50;;;;;;;3.86;73.21;96292.16;5036804;28;20036;-77
2022/02/19 08:18:23;;;;;;;13.03;2.00;;;;;;;3.73;73.35;96281.03;5053429;28;20048;-79
2022/02/19 08:20:50;;;;;;;13.70;2.70;;;;;;;4.54;71.16;96290.38;5054932;28;20033;-78
2022/02/19 08:23:18;;;;;;;11.00;1.57;;;;;;;5.08;68.00;96291.31;5052076;28;20442;-77
2022/02/19 08:25:46;;;;;;;9.93;1.57;;;;;;;4.99;67.94;96298.09;5051943;28;20025;-77
2022/02/19 08:28:13;;;;;;;14.07;1.97;;;;;;;4.36;70.89;96304.81;5041762;28;20040;-77
2022/02/19 08:30:41;;;;;;;7.37;1.63;;;;;;;4.37;69.79;96306.50;5023427;28;20029;-76
2022/02/19 08:33:09;;;;;;;9.07;1.53;;;;;;;4.65;68.99;96316.41;5022891;28;20032;-77
2022/02/19 08:35:38;;;;;;;7.40;2.00;;;;;;;4.74;69.11;96309.66;5009980;28;20037;-77
2022/02/19 08:38:05;;;;;;;16.97;3.13;;;;;;;5.22;66.78;96314.47;5037261;28;20044;-77
2022/02/19 08:40:31;;;;;;;11.67;2.20;;;;;;;5.29;67.20;96312.22;5049823;28;20033;-77
2022/02/19 08:42:58;;;;;;;11.03;2.60;;;;;;;4.59;67.62;96327.28;5027752;28;20033;-80
2022/02/19 08:45:25;;;;;;;10.50;1.70;;;;;;;4.51;68.43;96328.88;5032071;28;20061;-77
2022/02/19 08:47:54;;;;;;;10.10;1.80;;;;;;;5.13;65.82;96330.88;5027989;28;20037;-77
2022/02/19 08:50:21;;;;;;;8.83;1.70;;;;;;;4.83;66.44;96321.97;5017468;28;20038;-78
2022/02/19 08:52:48;;;;;;;9.80;1.87;;;;;;;5.52;66.27;96321.59;5035843;28;20133;-78
2022/02/19 08:55:16;;;;;;;19.67;1.83;;;;;;;6.12;64.44;96330.53;5030670;28;20026;-77
2022/02/19 08:57:42;;;;;;;10.00;1.97;;;;;;;6.46;62.76;96332.88;5037088;28;20052;-77
2022/02/19 09:00:10;;;;;;;8.00;1.40;;;;;;;6.36;62.09;96340.69;5010710;28;20030;-80
2022/02/19 09:02:37;;;;;;;8.40;1.47;;;;;;;6.38;61.21;96341.38;5033837;28;20037;-81
2022/02/19 09:05:04;;;;;;;11.13;2.50;;;;;;;7.01;59.14;96327.28;5032953;28;20394;-80
2022/02/19 09:07:30;;;;;;;8.90;1.57;;;;;;;6.67;58.93;96334.59;5020622;28;20529;-81
2022/02/19 09:09:55;;;;;;;8.03;1.63;;;;;;;6.59;59.70;96340.50;5020549;28;20025;-79
2022/02/19 09:12:23;;;;;;;7.07;1.60;;;;;;;6.82;58.07;96333.28;5044187;28;20388;-80
2022/02/19 09:14:49;;;;;;;10.87;2.13;;;;;;;6.97;58.49;96346.81;5029312;28;20085;-81
2022/02/19 09:17:15;;;;;;;10.50;2.10;;;;;;;6.97;57.78;96347.63;5021684;28;20037;-78
2022/02/19 09:19:41;;;;;;;9.40;1.57;;;;;;;6.52;59.19;96358.50;5017779;28;20025;-81
2022/02/19 09:22:07;;;;;;;8.57;2.23;;;;;;;6.68;57.90;96362.41;5025748;28;20753;-80
2022/02/19 09:24:34;;;;;;;7.33;1.53;;;;;;;5.63;61.04;96359.84;5034462;28;20033;-79
2022/02/19 09:27:02;;;;;;;9.40;1.80;;;;;;;5.39;61.65;96362.66;5022213;28;20036;-79
2022/02/19 09:29:28;;;;;;;12.60;1.97;;;;;;;6.13;59.67;96352.25;5010290;28;20038;-80
2022/02/19 09:31:53;;;;;;;10.20;3.00;;;;;;;5.76;62.56;96355.25;5009024;28;20025;-80
2022/02/19 09:34:22;;;;;;;6.20;1.50;;;;;;;5.43;61.95;96357.09;5052562;28;20053;-79
2022/02/19 09:36:49;;;;;;;6.53;1.57;;;;;;;5.88;61.21;96359.47;5022445;28;20102;-80
2022/02/19 09:39:15;;;;;;;8.97;1.13;;;;;;;5.91;60.48;96355.81;5020718;28;20029;-80
2022/02/19 09:41:44;;;;;;;10.47;1.83;;;;;;;6.02;59.54;96357.53;5016779;28;20172;-80
2022/02/19 09:44:09;;;;;;;8.57;1.47;;;;;;;6.67;58.96;96361.56;5043016;28;20033;-81
2022/02/19 09:46:35;;;;;;;6.90;1.50;;;;;;;6.56;58.11;96359.06;5035298;28;20060;-79
2022/02/19 09:49:06;;;;;;;10.77;2.60;;;;;;;6.64;56.21;96361.00;5050233;28;20701;-80
2022/02/19 09:51:33;;;;;;;13.40;2.30;;;;;;;6.51;57.85;96366.47;5032125;28;20366;-80
2022/02/19 09:54:00;;;;;;;10.60;1.80;;;;;;;5.89;59.50;96363.75;5017187;28;20030;-80
2022/02/19 09:56:28;;;;;;;14.23;2.90;;;;;;;6.14;56.47;96359.97;5033368;28;20042;-81
2022/02/19 09:59:00;;;;;;;11.10;2.77;;;;;;;5.49;59.40;96367.97;5061677;28;20127;-80
2022/02/19 10:01:27;;;;;;;11.33;1.67;;;;;;;5.68;58.07;96368.13;5027738;28;20040;-80
2022/02/19 10:04:01;;;;;;;9.20;1.63;;;;;;;5.98;57.25;96359.59;5024522;28;20030;-80
2022/02/19 10:06:33;;;;;;;8.77;1.63;;;;;;;5.95;57.11;96369.44;5036453;28;20059;-79
2022/02/19 10:09:10;;;;;;;8.97;1.40;;;;;;;6.65;54.45;96371.34;5052493;28;20112;-79
2022/02/19 10:11:37;;;;;;;6.17;2.23;;;;;;;7.38;52.96;96365.88;5021963;28;20045;-79
2022/02/19 10:14:29;;;;;;;10.67;1.90;;;;;;;6.82;52.84;96386.41;5015015;28;20037;-81
2022/02/19 10:17:17;;;;;;;5.87;1.30;;;;;;;6.82;52.49;96378.56;5047959;28;20032;-79
2022/02/19 10:19:50;;;;;;;7.97;1.83;;;;;;;6.17;56.02;96384.13;5014650;28;20040;-80
2022/02/19 10:22:19;;;;;;;7.80;1.10;;;;;;;6.23;54.12;96378.41;5034619;28;20478;-79
2022/02/19 10:24:47;;;;;;;7.30;1.30;;;;;;;6.24;54.06;96386.13;5036756;28;20033;-79
2022/02/19 10:27:13;;;;;;;6.47;1.30;;;;;;;7.25;52.82;96379.22;5017712;28;20033;-80
2022/02/19 10:29:50;;;;;;;8.37;1.53;;;;;;;7.44;49.81;96374.00;5017148;28;20030;-79
2022/02/19 10:32:18;;;;;;;10.53;0.93;;;;;;;7.48;49.00;96372.78;5020963;28;20029;-82
2022/02/19 10:35:00;;;;;;;6.50;1.60;;;;;;;8.21;50.53;96375.75;5014204;28;20034;-81
2022/02/19 10:37:28;;;;;;;9.93;1.57;;;;;;;8.38;50.32;96370.78;5031363;28;20033;-77
2022/02/19 10:39:56;;;;;;;7.07;1.20;;;;;;;8.36;47.82;96380.56;5035866;28;20098;-79
2022/02/19 10:42:34;;;;;;;7.63;1.57;;;;;;;8.22;46.71;96368.75;5065782;28;20088;-78
2022/02/19 10:45:08;;;;;;;8.37;1.60;;;;;;;8.29;46.25;96376.88;5034198;28;20021;-80
2022/02/19 10:47:35;;;;;;;7.73;1.07;;;;;;;6.79;49.21;96391.88;5042946;28;20545;-79
2022/02/19 10:50:03;;;;;;;9.17;1.90;;;;;;;6.35;50.91;96393.88;5046143;28;20029;-79
2022/02/19 10:52:29;;;;;;;9.87;1.70;;;;;;;6.36;52.49;96392.91;5038293;28;20029;-78
2022/02/19 10:55:07;;;;;;;7.17;1.23;;;;;;;5.98;52.07;96396.13;5037103;28;20063;-79
2022/02/19 10:57:55;;;;;;;8.20;1.23;;;;;;;5.36;53.81;96395.03;5033425;28;20033;-79
2022/02/19 11:00:22;;;;;;;10.27;2.50;;;;;;;5.57;53.54;96386.44;5041910;28;20060;-79
2022/02/19 11:02:49;;;;;;;6.60;1.07;;;;;;;5.98;52.75;96388.28;5040776;28;20047;-79
2022/02/19 11:05:17;;;;;;;8.37;1.87;;;;;;;6.31;51.05;96396.91;5042566;28;20029;-79
2022/02/19 11:07:44;;;;;;;6.57;1.20;;;;;;;6.47;50.24;96386.81;5042838;28;20743;-79
2022/02/19 11:10:13;;;;;;;7.00;1.30;;;;;;;6.61;60.03;96390.84;5015622;28;20534;-80
2022/02/19 11:12:39;;;;;;;4.90;1.37;;;;;;;6.31;49.48;96397.72;5029295;28;20029;-79
2022/02/19 11:15:07;;;;;;;4.90;0.93;;;;;;;7.10;48.51;96384.00;5016275;28;20013;-79
2022/02/19 11:17:36;;;;;;;7.53;1.20;;;;;;;7.68;47.24;96383.25;5041976;28;20037;-79
2022/02/19 11:20:10;;;;;;;2.13;0.73;;;;;;;7.51;47.43;96377.75;5048755;28;20113;-81
2022/02/19 11:22:40;;;;;;;7.40;1.37;;;;;;;6.61;47.27;96394.28;5017234;28;20663;-79
2022/02/19 11:25:19;;;;;;;5.83;0.80;;;;;;;7.64;46.41;96387.91;5030302;28;20163;-77
2022/02/19 11:27:47;;;;;;;5.70;1.17;;;;;;;7.49;44.92;96376.22;5037821;28;20029;-78
2022/02/19 11:30:12;;;;;;;4.13;0.93;;;;;;;7.21;44.92;96385.66;5054367;28;20056;-78
2022/02/19 11:32:40;;;;;;;5.60;1.00;;;;;;;7.43;46.85;96389.84;5038368;28;20101;-77
2022/02/19 11:35:08;;;;;;;8.00;1.47;;;;;;;6.82;47.45;96391.63;5024831;28;20025;-77
2022/02/19 11:37:43;;;;;;;7.03;1.43;;;;;;;6.32;48.14;96388.91;5026746;28;20041;-77
2022/02/19 11:40:15;;;;;;;6.67;1.10;;;;;;;6.31;49.05;96395.09;5016723;28;20064;-78
2022/02/19 11:42:41;;;;;;;5.90;1.80;;;;;;;6.37;49.57;96394.59;5022497;28;20495;-77
2022/02/19 11:45:16;;;;;;;5.73;1.27;;;;;;;6.34;50.47;96389.63;5040171;28;20456;-78
2022/02/19 11:47:45;;;;;;;7.73;1.20;;;;;;;7.17;49.03;96379.88;5033445;28;20038;-78
2022/02/19 11:50:32;;;;;;;9.23;1.93;;;;;;;7.08;50.56;96380.72;5039661;28;20072;-77
2022/02/19 11:53:10;;;;;;;6.57;1.50;;;;;;;6.52;50.94;96381.19;5029439;28;20034;-77
2022/02/19 11:55:44;;;;;;;6.87;1.40;;;;;;;6.11;51.49;96380.28;5035766;28;20067;-78
2022/02/19 11:58:15;;;;;;;8.68;1.70;;;;;;;6.20;52.61;96371.66;5047052;28;20036;-77